sensor_id;sensor_type;location;lat;lon;timestamp;P1;durP1;ratioP1;P2;durP2;ratioP2
71937;SDS011;59810;48.800;9.086;2023-08-01T00:01:42;6.40;;;2.43;;
71937;SDS011;59810;48.800;9.086;2023-08-01T00:04:07;5.73;;;2.00;;
71937;SDS011;59810;48.800;9.086;2023-08-01T00:06:32;9.13;;;2.33;;
71937;SDS011;59810;48.800;9.086;2023-08-01T00:08:58;6.43;;;2.70;;
71937;SDS011;59810;48.800;9.086;2023-08-01T00:11:23;6.20;;;2.20;;
71937;SDS011;59810;48.800;9.086;2023-08-01T00:13:48;5.73;;;2.23;;
71937;SDS011;59810;48.800;9.086;2023-08-01T00:16:14;7.27;;;2.43;;
71937;SDS011;59810;48.800;9.086;2023-08-01T00:18:39;6.27;;;2.30;;
71937;SDS011;59810;48.800;9.086;2023-08-01T00:21:04;7.37;;;2.40;;
71937;SDS011;59810;48.800;9.086;2023-08-01T00:23:33;5.65;;;2.50;;
71937;SDS011;59810;48.800;9.086;2023-08-01T00:25:59;7.03;;;2.20;;
71937;SDS011;59810;48.800;9.086;2023-08-01T00:28:24;7.90;;;2.17;;
71937;SDS011;59810;48.800;9.086;2023-08-01T00:30:49;4.93;;;1.93;;
71937;SDS011;59810;48.800;9.086;2023-08-01T00:33:15;6.87;;;2.40;;
71937;SDS011;59810;48.800;9.086;2023-08-01T00:35:40;7.83;;;2.53;;
71937;SDS011;59810;48.800;9.086;2023-08-01T00:38:06;6.45;;;2.50;;
71937;SDS011;59810;48.800;9.086;2023-08-01T00:40:31;7.63;;;2.80;;
71937;SDS011;59810;48.800;9.086;2023-08-01T00:42:58;6.35;;;2.50;;
71937;SDS011;59810;48.800;9.086;2023-08-01T00:45:23;6.93;;;2.20;;
71937;SDS011;59810;48.800;9.086;2023-08-01T00:47:50;6.72;;;2.60;;
71937;SDS011;59810;48.800;9.086;2023-08-01T00:50:17;6.07;;;2.28;;
71937;SDS011;59810;48.800;9.086;2023-08-01T00:52:45;7.93;;;2.03;;
71937;SDS011;59810;48.800;9.086;2023-08-01T00:55:11;7.70;;;2.45;;
71937;SDS011;59810;48.800;9.086;2023-08-01T00:57:36;6.97;;;2.67;;
71937;SDS011;59810;48.800;9.086;2023-08-01T01:00:02;6.60;;;2.60;;
71937;SDS011;59810;48.800;9.086;2023-08-01T01:02:28;6.63;;;2.30;;
71937;SDS011;59810;48.800;9.086;2023-08-01T01:04:53;6.53;;;2.40;;
71937;SDS011;59810;48.800;9.086;2023-08-01T01:07:18;6.40;;;2.40;;
71937;SDS011;59810;48.800;9.086;2023-08-01T01:09:44;8.60;;;2.40;;
71937;SDS011;59810;48.800;9.086;2023-08-01T01:12:09;6.80;;;2.40;;
71937;SDS011;59810;48.800;9.086;2023-08-01T01:14:35;7.57;;;2.60;;
71937;SDS011;59810;48.800;9.086;2023-08-01T01:17:00;6.57;;;2.40;;
71937;SDS011;59810;48.800;9.086;2023-08-01T01:19:26;7.53;;;2.50;;
71937;SDS011;59810;48.800;9.086;2023-08-01T01:21:52;8.07;;;2.17;;
71937;SDS011;59810;48.800;9.086;2023-08-01T01:24:18;7.60;;;2.53;;
71937;SDS011;59810;48.800;9.086;2023-08-01T01:26:46;7.38;;;2.38;;
71937;SDS011;59810;48.800;9.086;2023-08-01T01:29:13;6.53;;;2.45;;
71937;SDS011;59810;48.800;9.086;2023-08-01T01:31:39;6.15;;;2.30;;
71937;SDS011;59810;48.800;9.086;2023-08-01T01:34:05;5.90;;;2.30;;
71937;SDS011;59810;48.800;9.086;2023-08-01T01:36:31;6.45;;;2.40;;
71937;SDS011;59810;48.800;9.086;2023-08-01T01:38:56;8.20;;;2.70;;
71937;SDS011;59810;48.800;9.086;2023-08-01T01:41:21;6.37;;;2.40;;
71937;SDS011;59810;48.800;9.086;2023-08-01T01:43:47;5.90;;;2.47;;
71937;SDS011;59810;48.800;9.086;2023-08-01T01:46:13;7.20;;;2.50;;
71937;SDS011;59810;48.800;9.086;2023-08-01T01:48:38;6.22;;;2.45;;
71937;SDS011;59810;48.800;9.086;2023-08-01T01:51:03;8.37;;;2.40;;
71937;SDS011;59810;48.800;9.086;2023-08-01T01:53:29;6.97;;;2.97;;
71937;SDS011;59810;48.800;9.086;2023-08-01T01:55:54;8.63;;;3.20;;
71937;SDS011;59810;48.800;9.086;2023-08-01T01:58:19;7.77;;;2.70;;
71937;SDS011;59810;48.800;9.086;2023-08-01T02:00:45;7.00;;;2.50;;
71937;SDS011;59810;48.800;9.086;2023-08-01T02:03:10;6.70;;;2.30;;
71937;SDS011;59810;48.800;9.086;2023-08-01T02:05:37;7.38;;;2.40;;
71937;SDS011;59810;48.800;9.086;2023-08-01T02:08:05;5.97;;;2.30;;
71937;SDS011;59810;48.800;9.086;2023-08-01T02:10:30;7.10;;;2.90;;
71937;SDS011;59810;48.800;9.086;2023-08-01T02:12:55;7.10;;;2.50;;
71937;SDS011;59810;48.800;9.086;2023-08-01T02:15:21;8.93;;;2.83;;
71937;SDS011;59810;48.800;9.086;2023-08-01T02:17:46;10.20;;;2.78;;
71937;SDS011;59810;48.800;9.086;2023-08-01T02:20:11;7.80;;;2.60;;
71937;SDS011;59810;48.800;9.086;2023-08-01T02:22:37;7.00;;;2.67;;
71937;SDS011;59810;48.800;9.086;2023-08-01T02:25:02;6.57;;;2.33;;
71937;SDS011;59810;48.800;9.086;2023-08-01T02:27:28;6.03;;;2.55;;
71937;SDS011;59810;48.800;9.086;2023-08-01T02:29:53;8.10;;;2.53;;
71937;SDS011;59810;48.800;9.086;2023-08-01T02:32:18;7.27;;;2.53;;
71937;SDS011;59810;48.800;9.086;2023-08-01T02:34:44;6.13;;;2.70;;
71937;SDS011;59810;48.800;9.086;2023-08-01T02:37:09;6.13;;;2.40;;
71937;SDS011;59810;48.800;9.086;2023-08-01T02:39:35;7.05;;;2.70;;
71937;SDS011;59810;48.800;9.086;2023-08-01T02:42:00;6.30;;;2.43;;
71937;SDS011;59810;48.800;9.086;2023-08-01T02:44:25;6.63;;;2.63;;
71937;SDS011;59810;48.800;9.086;2023-08-01T02:46:51;6.83;;;2.33;;
71937;SDS011;59810;48.800;9.086;2023-08-01T02:49:16;7.30;;;2.80;;
71937;SDS011;59810;48.800;9.086;2023-08-01T02:51:42;7.80;;;2.30;;
71937;SDS011;59810;48.800;9.086;2023-08-01T02:54:07;7.37;;;2.70;;
71937;SDS011;59810;48.800;9.086;2023-08-01T02:56:32;6.97;;;2.80;;
71937;SDS011;59810;48.800;9.086;2023-08-01T02:58:58;6.30;;;2.50;;
71937;SDS011;59810;48.800;9.086;2023-08-01T03:01:23;5.60;;;2.20;;
71937;SDS011;59810;48.800;9.086;2023-08-01T03:03:48;6.93;;;2.47;;
71937;SDS011;59810;48.800;9.086;2023-08-01T03:06:14;7.60;;;2.57;;
71937;SDS011;59810;48.800;9.086;2023-08-01T03:08:40;7.00;;;2.90;;
71937;SDS011;59810;48.800;9.086;2023-08-01T03:11:05;10.83;;;2.77;;
71937;SDS011;59810;48.800;9.086;2023-08-01T03:13:31;7.67;;;2.60;;
71937;SDS011;59810;48.800;9.086;2023-08-01T03:15:56;7.40;;;2.50;;
71937;SDS011;59810;48.800;9.086;2023-08-01T03:18:21;6.43;;;2.50;;
71937;SDS011;59810;48.800;9.086;2023-08-01T03:20:47;5.80;;;2.10;;
71937;SDS011;59810;48.800;9.086;2023-08-01T03:23:12;6.57;;;2.57;;
71937;SDS011;59810;48.800;9.086;2023-08-01T03:25:38;8.13;;;2.50;;
71937;SDS011;59810;48.800;9.086;2023-08-01T03:28:03;7.47;;;3.17;;
71937;SDS011;59810;48.800;9.086;2023-08-01T03:30:30;5.63;;;2.20;;
71937;SDS011;59810;48.800;9.086;2023-08-01T03:32:56;7.95;;;2.55;;
71937;SDS011;59810;48.800;9.086;2023-08-01T03:35:22;6.63;;;2.47;;
71937;SDS011;59810;48.800;9.086;2023-08-01T03:37:48;6.15;;;2.28;;
71937;SDS011;59810;48.800;9.086;2023-08-01T03:40:14;7.37;;;2.20;;
71937;SDS011;59810;48.800;9.086;2023-08-01T03:42:39;8.00;;;2.40;;
71937;SDS011;59810;48.800;9.086;2023-08-01T03:45:05;6.17;;;2.27;;
71937;SDS011;59810;48.800;9.086;2023-08-01T03:49:59;5.38;;;2.10;;
71937;SDS011;59810;48.800;9.086;2023-08-01T03:52:24;7.77;;;2.30;;
71937;SDS011;59810;48.800;9.086;2023-08-01T03:54:52;6.40;;;1.93;;
71937;SDS011;59810;48.800;9.086;2023-08-01T03:57:19;6.63;;;2.20;;
71937;SDS011;59810;48.800;9.086;2023-08-01T03:59:45;6.53;;;2.10;;
71937;SDS011;59810;48.800;9.086;2023-08-01T04:02:11;6.72;;;2.33;;
71937;SDS011;59810;48.800;9.086;2023-08-01T04:04:36;9.87;;;2.30;;
71937;SDS011;59810;48.800;9.086;2023-08-01T04:07:03;7.00;;;2.30;;
71937;SDS011;59810;48.800;9.086;2023-08-01T04:09:29;5.03;;;2.10;;
71937;SDS011;59810;48.800;9.086;2023-08-01T04:11:55;6.50;;;1.93;;
71937;SDS011;59810;48.800;9.086;2023-08-01T04:14:20;8.03;;;2.00;;
71937;SDS011;59810;48.800;9.086;2023-08-01T04:16:46;6.43;;;2.20;;
71937;SDS011;59810;48.800;9.086;2023-08-01T04:19:11;5.63;;;1.90;;
71937;SDS011;59810;48.800;9.086;2023-08-01T04:21:36;6.88;;;2.20;;
71937;SDS011;59810;48.800;9.086;2023-08-01T04:24:01;5.87;;;1.80;;
71937;SDS011;59810;48.800;9.086;2023-08-01T04:26:27;5.93;;;2.23;;
71937;SDS011;59810;48.800;9.086;2023-08-01T04:28:52;5.93;;;2.23;;
71937;SDS011;59810;48.800;9.086;2023-08-01T04:31:17;6.27;;;2.23;;
71937;SDS011;59810;48.800;9.086;2023-08-01T04:33:43;7.73;;;2.37;;
71937;SDS011;59810;48.800;9.086;2023-08-01T04:36:08;5.60;;;1.92;;
71937;SDS011;59810;48.800;9.086;2023-08-01T04:38:33;5.53;;;2.10;;
71937;SDS011;59810;48.800;9.086;2023-08-01T04:40:59;9.13;;;1.97;;
71937;SDS011;59810;48.800;9.086;2023-08-01T04:43:25;7.10;;;2.10;;
71937;SDS011;59810;48.800;9.086;2023-08-01T04:45:50;5.40;;;2.07;;
71937;SDS011;59810;48.800;9.086;2023-08-01T04:48:15;5.63;;;1.87;;
71937;SDS011;59810;48.800;9.086;2023-08-01T04:50:41;9.10;;;2.20;;
71937;SDS011;59810;48.800;9.086;2023-08-01T04:53:06;5.60;;;1.97;;
71937;SDS011;59810;48.800;9.086;2023-08-01T04:55:32;5.35;;;1.80;;
71937;SDS011;59810;48.800;9.086;2023-08-01T04:57:57;5.43;;;1.87;;
71937;SDS011;59810;48.800;9.086;2023-08-01T05:00:23;5.17;;;2.00;;
71937;SDS011;59810;48.800;9.086;2023-08-01T05:02:48;4.97;;;1.50;;
71937;SDS011;59810;48.800;9.086;2023-08-01T05:05:14;5.40;;;2.00;;
71937;SDS011;59810;48.800;9.086;2023-08-01T05:07:41;5.95;;;1.85;;
71937;SDS011;59810;48.800;9.086;2023-08-01T05:10:06;6.80;;;2.50;;
71937;SDS011;59810;48.800;9.086;2023-08-01T05:12:32;7.37;;;2.30;;
71937;SDS011;59810;48.800;9.086;2023-08-01T05:14:57;6.85;;;1.92;;
71937;SDS011;59810;48.800;9.086;2023-08-01T05:17:22;5.53;;;2.17;;
71937;SDS011;59810;48.800;9.086;2023-08-01T05:19:48;7.63;;;2.20;;
71937;SDS011;59810;48.800;9.086;2023-08-01T05:22:13;6.43;;;2.13;;
71937;SDS011;59810;48.800;9.086;2023-08-01T05:24:39;6.07;;;2.20;;
71937;SDS011;59810;48.800;9.086;2023-08-01T05:27:04;9.33;;;2.27;;
71937;SDS011;59810;48.800;9.086;2023-08-01T05:29:30;5.40;;;2.00;;
71937;SDS011;59810;48.800;9.086;2023-08-01T05:31:55;7.70;;;2.40;;
71937;SDS011;59810;48.800;9.086;2023-08-01T05:34:20;7.03;;;2.10;;
71937;SDS011;59810;48.800;9.086;2023-08-01T05:36:45;7.10;;;2.40;;
71937;SDS011;59810;48.800;9.086;2023-08-01T05:39:11;6.20;;;2.20;;
71937;SDS011;59810;48.800;9.086;2023-08-01T05:41:36;5.63;;;2.17;;
71937;SDS011;59810;48.800;9.086;2023-08-01T05:44:02;8.27;;;2.40;;
71937;SDS011;59810;48.800;9.086;2023-08-01T05:46:27;6.37;;;2.77;;
71937;SDS011;59810;48.800;9.086;2023-08-01T05:48:52;7.73;;;2.60;;
71937;SDS011;59810;48.800;9.086;2023-08-01T05:51:18;8.60;;;2.50;;
71937;SDS011;59810;48.800;9.086;2023-08-01T05:53:43;6.73;;;2.70;;
71937;SDS011;59810;48.800;9.086;2023-08-01T05:56:08;7.07;;;2.67;;
71937;SDS011;59810;48.800;9.086;2023-08-01T05:58:34;6.87;;;2.40;;
71937;SDS011;59810;48.800;9.086;2023-08-01T06:00:59;7.80;;;2.87;;
71937;SDS011;59810;48.800;9.086;2023-08-01T06:03:24;5.33;;;2.03;;
71937;SDS011;59810;48.800;9.086;2023-08-01T06:05:50;8.95;;;2.60;;
71937;SDS011;59810;48.800;9.086;2023-08-01T06:08:15;10.27;;;3.10;;
71937;SDS011;59810;48.800;9.086;2023-08-01T06:10:41;6.87;;;2.63;;
71937;SDS011;59810;48.800;9.086;2023-08-01T06:13:06;6.30;;;2.30;;
71937;SDS011;59810;48.800;9.086;2023-08-01T06:15:32;8.82;;;2.85;;
71937;SDS011;59810;48.800;9.086;2023-08-01T06:17:57;6.70;;;2.10;;
71937;SDS011;59810;48.800;9.086;2023-08-01T06:20:23;7.07;;;2.70;;
71937;SDS011;59810;48.800;9.086;2023-08-01T06:22:48;8.33;;;2.27;;
71937;SDS011;59810;48.800;9.086;2023-08-01T06:25:14;6.35;;;2.38;;
71937;SDS011;59810;48.800;9.086;2023-08-01T06:27:39;6.40;;;2.60;;
71937;SDS011;59810;48.800;9.086;2023-08-01T06:30:04;7.13;;;2.43;;
71937;SDS011;59810;48.800;9.086;2023-08-01T06:32:31;8.23;;;2.65;;
71937;SDS011;59810;48.800;9.086;2023-08-01T06:34:56;7.13;;;2.57;;
71937;SDS011;59810;48.800;9.086;2023-08-01T06:37:21;7.13;;;2.53;;
71937;SDS011;59810;48.800;9.086;2023-08-01T06:39:47;8.70;;;2.97;;
71937;SDS011;59810;48.800;9.086;2023-08-01T06:42:12;7.88;;;2.63;;
71937;SDS011;59810;48.800;9.086;2023-08-01T06:44:37;7.50;;;2.47;;
71937;SDS011;59810;48.800;9.086;2023-08-01T06:47:03;6.57;;;2.87;;
71937;SDS011;59810;48.800;9.086;2023-08-01T06:49:28;11.07;;;2.80;;
71937;SDS011;59810;48.800;9.086;2023-08-01T06:51:54;7.97;;;3.20;;
71937;SDS011;59810;48.800;9.086;2023-08-01T06:54:19;9.97;;;3.10;;
71937;SDS011;59810;48.800;9.086;2023-08-01T06:56:44;8.63;;;3.13;;
71937;SDS011;59810;48.800;9.086;2023-08-01T06:59:15;9.25;;;3.50;;
71937;SDS011;59810;48.800;9.086;2023-08-01T07:01:41;9.48;;;3.47;;
71937;SDS011;59810;48.800;9.086;2023-08-01T07:04:08;8.53;;;3.63;;
71937;SDS011;59810;48.800;9.086;2023-08-01T07:06:38;9.52;;;3.63;;
71937;SDS011;59810;48.800;9.086;2023-08-01T07:09:03;9.32;;;3.50;;
71937;SDS011;59810;48.800;9.086;2023-08-01T07:11:29;10.07;;;4.03;;
71937;SDS011;59810;48.800;9.086;2023-08-01T07:13:54;10.10;;;3.90;;
71937;SDS011;59810;48.800;9.086;2023-08-01T07:16:20;9.83;;;3.73;;
71937;SDS011;59810;48.800;9.086;2023-08-01T07:18:45;8.20;;;3.37;;
71937;SDS011;59810;48.800;9.086;2023-08-01T07:21:10;8.30;;;3.40;;
71937;SDS011;59810;48.800;9.086;2023-08-01T07:23:36;8.83;;;3.67;;
71937;SDS011;59810;48.800;9.086;2023-08-01T07:26:01;13.33;;;3.83;;
71937;SDS011;59810;48.800;9.086;2023-08-01T07:28:26;8.70;;;3.20;;
71937;SDS011;59810;48.800;9.086;2023-08-01T07:31:02;10.63;;;3.42;;
71937;SDS011;59810;48.800;9.086;2023-08-01T07:33:29;9.35;;;3.08;;
71937;SDS011;59810;48.800;9.086;2023-08-01T07:35:55;11.80;;;3.30;;
71937;SDS011;59810;48.800;9.086;2023-08-01T07:38:20;9.00;;;3.10;;
71937;SDS011;59810;48.800;9.086;2023-08-01T07:40:46;8.23;;;2.80;;
71937;SDS011;59810;48.800;9.086;2023-08-01T07:43:11;9.60;;;3.03;;
71937;SDS011;59810;48.800;9.086;2023-08-01T07:45:37;10.40;;;2.97;;
71937;SDS011;59810;48.800;9.086;2023-08-01T07:48:03;8.77;;;2.80;;
71937;SDS011;59810;48.800;9.086;2023-08-01T07:50:28;6.05;;;2.25;;
71937;SDS011;59810;48.800;9.086;2023-08-01T07:52:54;9.00;;;2.70;;
71937;SDS011;59810;48.800;9.086;2023-08-01T07:55:19;7.57;;;2.40;;
71937;SDS011;59810;48.800;9.086;2023-08-01T07:57:45;7.45;;;2.25;;
71937;SDS011;59810;48.800;9.086;2023-08-01T08:00:11;7.20;;;2.83;;
71937;SDS011;59810;48.800;9.086;2023-08-01T08:02:37;8.40;;;2.42;;
71937;SDS011;59810;48.800;9.086;2023-08-01T08:05:02;6.93;;;2.07;;
71937;SDS011;59810;48.800;9.086;2023-08-01T08:07:31;6.47;;;2.33;;
71937;SDS011;59810;48.800;9.086;2023-08-01T08:09:57;6.55;;;1.88;;
71937;SDS011;59810;48.800;9.086;2023-08-01T08:12:22;5.73;;;2.00;;
71937;SDS011;59810;48.800;9.086;2023-08-01T08:14:48;5.10;;;1.60;;
71937;SDS011;59810;48.800;9.086;2023-08-01T08:17:13;5.30;;;2.03;;
71937;SDS011;59810;48.800;9.086;2023-08-01T08:19:40;6.32;;;1.85;;
71937;SDS011;59810;48.800;9.086;2023-08-01T08:22:05;6.53;;;1.70;;
71937;SDS011;59810;48.800;9.086;2023-08-01T08:24:30;6.03;;;1.80;;
71937;SDS011;59810;48.800;9.086;2023-08-01T08:26:56;6.30;;;1.43;;
71937;SDS011;59810;48.800;9.086;2023-08-01T08:29:21;6.00;;;1.73;;
71937;SDS011;59810;48.800;9.086;2023-08-01T08:31:47;5.68;;;1.70;;
71937;SDS011;59810;48.800;9.086;2023-08-01T08:34:12;6.47;;;1.80;;
71937;SDS011;59810;48.800;9.086;2023-08-01T08:36:38;5.70;;;1.88;;
71937;SDS011;59810;48.800;9.086;2023-08-01T08:39:03;5.43;;;2.07;;
71937;SDS011;59810;48.800;9.086;2023-08-01T08:41:30;5.23;;;1.73;;
71937;SDS011;59810;48.800;9.086;2023-08-01T08:44:02;5.28;;;1.58;;
71937;SDS011;59810;48.800;9.086;2023-08-01T08:46:32;5.63;;;1.60;;
71937;SDS011;59810;48.800;9.086;2023-08-01T08:49:01;6.53;;;2.03;;
71937;SDS011;59810;48.800;9.086;2023-08-01T08:51:27;6.15;;;1.75;;
71937;SDS011;59810;48.800;9.086;2023-08-01T08:53:53;5.13;;;1.73;;
71937;SDS011;59810;48.800;9.086;2023-08-01T08:56:19;4.97;;;1.75;;
71937;SDS011;59810;48.800;9.086;2023-08-01T08:58:45;6.00;;;1.60;;
71937;SDS011;59810;48.800;9.086;2023-08-01T09:01:12;5.63;;;1.40;;
71937;SDS011;59810;48.800;9.086;2023-08-01T09:03:38;6.50;;;1.58;;
71937;SDS011;59810;48.800;9.086;2023-08-01T09:06:06;3.67;;;1.20;;
71937;SDS011;59810;48.800;9.086;2023-08-01T09:08:35;4.28;;;1.30;;
71937;SDS011;59810;48.800;9.086;2023-08-01T09:11:01;5.68;;;1.80;;
71937;SDS011;59810;48.800;9.086;2023-08-01T09:13:28;6.10;;;1.40;;
71937;SDS011;59810;48.800;9.086;2023-08-01T09:15:53;5.97;;;1.73;;
71937;SDS011;59810;48.800;9.086;2023-08-01T09:18:21;3.33;;;1.00;;
71937;SDS011;59810;48.800;9.086;2023-08-01T09:20:47;3.47;;;1.05;;
71937;SDS011;59810;48.800;9.086;2023-08-01T09:23:13;3.53;;;1.13;;
71937;SDS011;59810;48.800;9.086;2023-08-01T09:25:39;4.13;;;1.00;;
71937;SDS011;59810;48.800;9.086;2023-08-01T09:28:19;3.80;;;1.10;;
71937;SDS011;59810;48.800;9.086;2023-08-01T09:30:50;3.20;;;1.00;;
71937;SDS011;59810;48.800;9.086;2023-08-01T09:33:20;2.55;;;0.88;;
71937;SDS011;59810;48.800;9.086;2023-08-01T09:35:46;2.80;;;0.90;;
71937;SDS011;59810;48.800;9.086;2023-08-01T09:38:12;2.92;;;0.80;;
71937;SDS011;59810;48.800;9.086;2023-08-01T09:40:39;2.70;;;0.73;;
71937;SDS011;59810;48.800;9.086;2023-08-01T09:43:05;2.53;;;0.75;;
71937;SDS011;59810;48.800;9.086;2023-08-01T09:45:30;1.80;;;0.47;;
71937;SDS011;59810;48.800;9.086;2023-08-01T09:47:56;2.50;;;0.80;;
71937;SDS011;59810;48.800;9.086;2023-08-01T09:50:22;2.47;;;0.63;;
71937;SDS011;59810;48.800;9.086;2023-08-01T09:52:48;2.80;;;0.63;;
71937;SDS011;59810;48.800;9.086;2023-08-01T09:55:40;1.85;;;0.50;;
71937;SDS011;59810;48.800;9.086;2023-08-01T09:58:08;1.27;;;0.40;;
71937;SDS011;59810;48.800;9.086;2023-08-01T10:00:37;1.98;;;0.40;;
71937;SDS011;59810;48.800;9.086;2023-08-01T10:03:03;1.90;;;0.50;;
71937;SDS011;59810;48.800;9.086;2023-08-01T10:05:29;1.77;;;0.47;;
71937;SDS011;59810;48.800;9.086;2023-08-01T10:07:58;1.00;;;0.40;;
71937;SDS011;59810;48.800;9.086;2023-08-01T10:10:26;1.25;;;0.43;;
71937;SDS011;59810;48.800;9.086;2023-08-01T10:12:52;1.53;;;0.50;;
71937;SDS011;59810;48.800;9.086;2023-08-01T10:15:19;2.00;;;0.50;;
71937;SDS011;59810;48.800;9.086;2023-08-01T10:17:45;2.10;;;0.40;;
71937;SDS011;59810;48.800;9.086;2023-08-01T10:20:11;1.08;;;0.40;;
71937;SDS011;59810;48.800;9.086;2023-08-01T10:22:37;1.47;;;0.40;;
71937;SDS011;59810;48.800;9.086;2023-08-01T10:25:04;2.77;;;0.40;;
71937;SDS011;59810;48.800;9.086;2023-08-01T10:27:31;1.38;;;0.40;;
71937;SDS011;59810;48.800;9.086;2023-08-01T10:29:57;1.20;;;0.50;;
71937;SDS011;59810;48.800;9.086;2023-08-01T10:32:33;1.30;;;0.50;;
71937;SDS011;59810;48.800;9.086;2023-08-01T10:34:59;1.20;;;0.40;;
71937;SDS011;59810;48.800;9.086;2023-08-01T10:37:26;1.48;;;0.52;;
71937;SDS011;59810;48.800;9.086;2023-08-01T10:39:58;2.17;;;0.60;;
71937;SDS011;59810;48.800;9.086;2023-08-01T10:42:24;1.27;;;0.43;;
71937;SDS011;59810;48.800;9.086;2023-08-01T10:44:50;1.63;;;0.43;;
71937;SDS011;59810;48.800;9.086;2023-08-01T10:47:24;1.50;;;0.50;;
71937;SDS011;59810;48.800;9.086;2023-08-01T10:49:53;1.60;;;0.43;;
71937;SDS011;59810;48.800;9.086;2023-08-01T10:52:23;1.38;;;0.40;;
71937;SDS011;59810;48.800;9.086;2023-08-01T10:55:02;1.40;;;0.50;;
71937;SDS011;59810;48.800;9.086;2023-08-01T10:57:31;1.60;;;0.60;;
71937;SDS011;59810;48.800;9.086;2023-08-01T10:59:57;1.48;;;0.57;;
71937;SDS011;59810;48.800;9.086;2023-08-01T11:02:25;2.50;;;0.60;;
71937;SDS011;59810;48.800;9.086;2023-08-01T11:04:58;1.83;;;0.60;;
71937;SDS011;59810;48.800;9.086;2023-08-01T11:07:24;2.07;;;0.63;;
71937;SDS011;59810;48.800;9.086;2023-08-01T11:09:50;1.98;;;0.52;;
71937;SDS011;59810;48.800;9.086;2023-08-01T11:12:28;2.27;;;0.60;;
71937;SDS011;59810;48.800;9.086;2023-08-01T11:14:58;2.33;;;0.80;;
71937;SDS011;59810;48.800;9.086;2023-08-01T11:17:24;2.97;;;0.70;;
71937;SDS011;59810;48.800;9.086;2023-08-01T11:19:50;1.95;;;0.57;;
71937;SDS011;59810;48.800;9.086;2023-08-01T11:22:15;1.80;;;0.60;;
71937;SDS011;59810;48.800;9.086;2023-08-01T11:24:40;1.83;;;0.60;;
71937;SDS011;59810;48.800;9.086;2023-08-01T11:27:15;3.10;;;0.70;;
71937;SDS011;59810;48.800;9.086;2023-08-01T11:29:40;3.57;;;0.80;;
71937;SDS011;59810;48.800;9.086;2023-08-01T11:32:06;2.63;;;0.83;;
71937;SDS011;59810;48.800;9.086;2023-08-01T11:34:38;3.97;;;0.90;;
71937;SDS011;59810;48.800;9.086;2023-08-01T11:37:05;2.97;;;1.00;;
71937;SDS011;59810;48.800;9.086;2023-08-01T11:39:31;2.27;;;0.80;;
71937;SDS011;59810;48.800;9.086;2023-08-01T11:41:56;2.27;;;0.70;;
71937;SDS011;59810;48.800;9.086;2023-08-01T11:44:24;2.60;;;0.75;;
71937;SDS011;59810;48.800;9.086;2023-08-01T11:46:50;3.87;;;0.90;;
71937;SDS011;59810;48.800;9.086;2023-08-01T11:49:15;2.10;;;0.75;;
71937;SDS011;59810;48.800;9.086;2023-08-01T11:51:41;3.00;;;0.93;;
71937;SDS011;59810;48.800;9.086;2023-08-01T11:54:09;3.08;;;0.90;;
71937;SDS011;59810;48.800;9.086;2023-08-01T11:56:36;2.88;;;1.00;;
71937;SDS011;59810;48.800;9.086;2023-08-01T11:59:08;4.40;;;0.90;;
71937;SDS011;59810;48.800;9.086;2023-08-01T12:01:44;3.53;;;1.20;;
71937;SDS011;59810;48.800;9.086;2023-08-01T12:04:12;2.90;;;0.90;;
71937;SDS011;59810;48.800;9.086;2023-08-01T12:06:48;3.45;;;0.90;;
71937;SDS011;59810;48.800;9.086;2023-08-01T12:09:13;3.10;;;1.10;;
71937;SDS011;59810;48.800;9.086;2023-08-01T12:11:39;3.87;;;1.10;;
71937;SDS011;59810;48.800;9.086;2023-08-01T12:14:07;3.20;;;1.05;;
71937;SDS011;59810;48.800;9.086;2023-08-01T12:16:43;4.20;;;1.10;;
71937;SDS011;59810;48.800;9.086;2023-08-01T12:19:10;3.63;;;1.10;;
71937;SDS011;59810;48.800;9.086;2023-08-01T12:21:41;2.90;;;0.90;;
71937;SDS011;59810;48.800;9.086;2023-08-01T12:24:06;2.50;;;0.77;;
71937;SDS011;59810;48.800;9.086;2023-08-01T12:26:31;4.07;;;1.03;;
71937;SDS011;59810;48.800;9.086;2023-08-01T12:28:57;4.20;;;1.00;;
71937;SDS011;59810;48.800;9.086;2023-08-01T12:31:22;4.67;;;1.03;;
71937;SDS011;59810;48.800;9.086;2023-08-01T12:33:48;2.90;;;1.05;;
71937;SDS011;59810;48.800;9.086;2023-08-01T12:36:14;6.40;;;1.03;;
71937;SDS011;59810;48.800;9.086;2023-08-01T12:38:40;3.45;;;1.00;;
71937;SDS011;59810;48.800;9.086;2023-08-01T12:41:05;2.77;;;1.00;;
71937;SDS011;59810;48.800;9.086;2023-08-01T12:43:31;3.58;;;1.20;;
71937;SDS011;59810;48.800;9.086;2023-08-01T12:45:57;2.67;;;1.00;;
71937;SDS011;59810;48.800;9.086;2023-08-01T12:48:23;2.58;;;1.02;;
71937;SDS011;59810;48.800;9.086;2023-08-01T12:50:49;3.80;;;1.00;;
71937;SDS011;59810;48.800;9.086;2023-08-01T12:53:15;2.93;;;1.10;;
71937;SDS011;59810;48.800;9.086;2023-08-01T12:55:43;4.13;;;1.10;;
71937;SDS011;59810;48.800;9.086;2023-08-01T12:58:09;3.33;;;1.10;;
71937;SDS011;59810;48.800;9.086;2023-08-01T13:00:35;3.17;;;1.10;;
71937;SDS011;59810;48.800;9.086;2023-08-01T13:03:00;3.80;;;1.00;;
71937;SDS011;59810;48.800;9.086;2023-08-01T13:05:25;3.03;;;1.00;;
71937;SDS011;59810;48.800;9.086;2023-08-01T13:07:51;3.53;;;1.27;;
71937;SDS011;59810;48.800;9.086;2023-08-01T13:10:16;5.13;;;1.10;;
71937;SDS011;59810;48.800;9.086;2023-08-01T13:12:42;4.80;;;1.47;;
71937;SDS011;59810;48.800;9.086;2023-08-01T13:15:08;3.40;;;1.30;;
71937;SDS011;59810;48.800;9.086;2023-08-01T13:17:34;2.75;;;1.00;;
71937;SDS011;59810;48.800;9.086;2023-08-01T13:19:59;3.63;;;1.23;;
71937;SDS011;59810;48.800;9.086;2023-08-01T13:22:24;3.50;;;1.07;;
71937;SDS011;59810;48.800;9.086;2023-08-01T13:24:50;3.95;;;1.10;;
71937;SDS011;59810;48.800;9.086;2023-08-01T13:27:15;3.30;;;1.03;;
71937;SDS011;59810;48.800;9.086;2023-08-01T13:29:40;4.87;;;1.20;;
71937;SDS011;59810;48.800;9.086;2023-08-01T13:32:06;5.40;;;1.30;;
71937;SDS011;59810;48.800;9.086;2023-08-01T13:34:32;3.97;;;1.25;;
71937;SDS011;59810;48.800;9.086;2023-08-01T13:36:57;3.83;;;1.13;;
71937;SDS011;59810;48.800;9.086;2023-08-01T13:39:23;3.93;;;1.40;;
71937;SDS011;59810;48.800;9.086;2023-08-01T13:41:48;4.17;;;1.10;;
71937;SDS011;59810;48.800;9.086;2023-08-01T13:44:13;5.18;;;1.20;;
71937;SDS011;59810;48.800;9.086;2023-08-01T13:46:39;2.60;;;1.20;;
71937;SDS011;59810;48.800;9.086;2023-08-01T13:49:04;3.37;;;1.13;;
71937;SDS011;59810;48.800;9.086;2023-08-01T13:51:33;3.87;;;1.27;;
71937;SDS011;59810;48.800;9.086;2023-08-01T13:53:58;3.90;;;1.45;;
71937;SDS011;59810;48.800;9.086;2023-08-01T13:56:24;4.45;;;1.17;;
71937;SDS011;59810;48.800;9.086;2023-08-01T13:58:50;4.10;;;1.30;;
71937;SDS011;59810;48.800;9.086;2023-08-01T14:01:16;3.88;;;1.20;;
71937;SDS011;59810;48.800;9.086;2023-08-01T14:03:43;3.38;;;1.30;;
71937;SDS011;59810;48.800;9.086;2023-08-01T14:06:10;3.80;;;1.27;;
71937;SDS011;59810;48.800;9.086;2023-08-01T14:08:37;3.17;;;1.10;;
71937;SDS011;59810;48.800;9.086;2023-08-01T14:11:03;3.22;;;1.10;;
71937;SDS011;59810;48.800;9.086;2023-08-01T14:13:29;4.43;;;1.35;;
71937;SDS011;59810;48.800;9.086;2023-08-01T14:15:55;3.50;;;1.23;;
71937;SDS011;59810;48.800;9.086;2023-08-01T14:18:20;5.23;;;1.40;;
71937;SDS011;59810;48.800;9.086;2023-08-01T14:20:45;3.10;;;1.10;;
71937;SDS011;59810;48.800;9.086;2023-08-01T14:23:11;4.03;;;1.20;;
71937;SDS011;59810;48.800;9.086;2023-08-01T14:25:36;3.33;;;1.10;;
71937;SDS011;59810;48.800;9.086;2023-08-01T14:28:01;3.47;;;1.23;;
71937;SDS011;59810;48.800;9.086;2023-08-01T14:30:27;4.17;;;1.20;;
71937;SDS011;59810;48.800;9.086;2023-08-01T14:33:01;3.67;;;1.33;;
71937;SDS011;59810;48.800;9.086;2023-08-01T14:35:27;3.80;;;1.33;;
71937;SDS011;59810;48.800;9.086;2023-08-01T14:37:53;3.83;;;1.30;;
71937;SDS011;59810;48.800;9.086;2023-08-01T14:40:20;3.58;;;1.13;;
71937;SDS011;59810;48.800;9.086;2023-08-01T14:42:49;4.15;;;1.63;;
71937;SDS011;59810;48.800;9.086;2023-08-01T14:45:14;3.67;;;1.40;;